This is the latest recevied weather packets stored in our database for station/object N3FAA. If no packets are shown the sender has not sent any weather packets the latest 10 day(s).
| Time | Temp. | Humidity | Pressure | Rain* | Wind** | Luminosity | Snow |
|---|---|---|---|---|---|---|---|
| 1777819257 | 16.67° C | 46% | 1008.9 hPa | 0 mm | - | 145 W/m² | - |
| 1777818954 | 16.67° C | 45% | 1008.9 hPa | 0 mm | - | 146 W/m² | - |
| 1777818650 | 16.67° C | 44% | 1008.8 hPa | 0 mm | - | 142 W/m² | - |
| 1777818348 | 16.11° C | 44% | 1008.7 hPa | 0 mm | - | 132 W/m² | - |
| 1777818044 | 16.11° C | 43% | 1008.9 hPa | 0 mm | - | 110 W/m² | - |
| 1777817741 | 15.56° C | 42% | 1008.5 hPa | 0 mm | - | 75 W/m² | - |
| 1777817439 | 15.56° C | 43% | 1008.7 hPa | 0 mm | - | 66 W/m² | - |
| 1777817134 | 15.56° C | 43% | 1008.7 hPa | 0 mm | - | 60 W/m² | - |
| 1777816832 | 15.56° C | 43% | 1008.7 hPa | 0 mm | - | 54 W/m² | - |
| 1777816529 | 15° C | 44% | 1008.6 hPa | 0 mm | - | 49 W/m² | - |
| 1777816226 | 14.44° C | 45% | 1008.5 hPa | 0 mm | - | 45 W/m² | - |
| 1777815924 | 13.89° C | 47% | 1008.3 hPa | 0 mm | - | 39 W/m² | - |
| 1777815621 | 13.89° C | 48% | 1008.7 hPa | 0 mm | - | 35 W/m² | - |
| 1777815318 | 13.33° C | 49% | 1008.7 hPa | 0 mm | - | 29 W/m² | - |
| 1777815015 | 13.33° C | 51% | 1008.6 hPa | 0 mm | - | 25 W/m² | - |
| 1777814711 | 11.67° C | 57% | 1008.6 hPa | 0 mm | - | 20 W/m² | - |
| 1777814408 | 12.22° C | 56% | 1008.7 hPa | 0 mm | - | 15 W/m² | - |
| 1777814105 | 11.67° C | 55% | 1008.7 hPa | 0 mm | - | 10 W/m² | - |
| 1777813801 | 9.44° C | 61% | 1008.7 hPa | 0 mm | - | 7 W/m² | - |
| 1777813499 | 9.44° C | 59% | 1008.6 hPa | 0 mm | - | 4 W/m² | - |
| 1777813196 | 10° C | 58% | 1008.7 hPa | 0 mm | - | 1 W/m² | - |
| 1777812895 | 10° C | 58% | 1008.4 hPa | 0 mm | - | 0 W/m² | - |
| 1777812590 | 10° C | 57% | 1008.5 hPa | 0 mm | - | 0 W/m² | - |
| 1777812288 | 10° C | 58% | 1008.5 hPa | 0 mm | - | 0 W/m² | - |
| 1777811986 | 10° C | 61% | 1008.4 hPa | 0 mm | - | 0 W/m² | - |
* Rain latest hour (hover to see other rain measurements)
** Current wind speed in m/s (hover to see current wind gust speed)